Time;durP1;ratioP1;P1;durP2;ratioP2;P2;SDS_P1;SDS_P2;PMS_P1;PMS_P2;Temp;Humidity;BMP_temperature;BMP_pressure;BME280_temperature;BME280_humidity;BME280_pressure;Samples;Min_cycle;Max_cycle;Signal;HPM_P1;HPM_P2
2022/06/26 00:02:01;;;;;;;5.88;4.80;;;19.00;99.90;;;;;;5058454;28;20036;-81
2022/06/26 00:04:28;;;;;;;7.10;5.15;;;19.00;99.90;;;;;;5062876;28;20056;-81
2022/06/26 00:06:55;;;;;;;4.57;4.18;;;19.00;99.90;;;;;;5058927;28;20040;-77
2022/06/26 00:09:22;;;;;;;6.07;5.40;;;19.00;99.90;;;;;;5050080;28;20049;-81
2022/06/26 00:11:49;;;;;;;6.18;5.32;;;18.90;99.90;;;;;;5060121;28;20039;-82
2022/06/26 00:14:15;;;;;;;7.07;5.80;;;18.90;99.90;;;;;;5054415;28;20455;-82
2022/06/26 00:16:42;;;;;;;7.25;5.93;;;18.90;99.90;;;;;;5039277;28;20029;-82
2022/06/26 00:19:08;;;;;;;4.82;4.05;;;18.90;99.90;;;;;;5038637;28;20024;-77
2022/06/26 00:21:35;;;;;;;7.25;5.50;;;18.90;99.90;;;;;;5036463;28;20020;-79
2022/06/26 00:24:02;;;;;;;6.22;5.68;;;18.90;99.90;;;;;;5063089;28;20045;-76
2022/06/26 00:26:28;;;;;;;6.55;5.95;;;18.90;99.90;;;;;;5041932;28;20025;-79
2022/06/26 00:28:55;;;;;;;6.68;5.97;;;18.90;99.90;;;;;;5032428;28;20028;-83
2022/06/26 00:31:21;;;;;;;8.20;6.07;;;18.90;99.90;;;;;;5058161;28;20045;-84
2022/06/26 00:33:49;;;;;;;6.82;5.97;;;18.90;99.90;;;;;;5058487;28;20487;-82
2022/06/26 00:36:23;;;;;;;9.27;7.22;;;18.80;99.90;;;;;;5078074;28;20044;-80
2022/06/26 00:38:52;;;;;;;6.22;5.63;;;18.70;99.90;;;;;;5049967;28;20037;-81
2022/06/26 00:41:19;;;;;;;10.63;7.20;;;18.60;99.90;;;;;;5061837;28;20032;-76
2022/06/26 00:43:46;;;;;;;7.30;6.60;;;18.50;99.90;;;;;;5058188;28;20383;-76
2022/06/26 00:46:14;;;;;;;8.48;6.93;;;18.40;99.90;;;;;;5060781;28;20396;-76
2022/06/26 00:48:40;;;;;;;7.70;7.00;;;18.40;99.90;;;;;;5029749;28;20044;-80
2022/06/26 00:51:07;;;;;;;7.18;6.47;;;18.40;99.90;;;;;;5077970;28;20472;-78
2022/06/26 00:53:33;;;;;;;7.90;6.70;;;18.40;99.90;;;;;;5044159;28;20036;-80
2022/06/26 00:56:01;;;;;;;7.30;6.60;;;18.30;99.90;;;;;;5079094;28;20150;-78
2022/06/26 00:58:27;;;;;;;5.53;5.03;;;18.30;99.90;;;;;;5060919;28;20033;-78
2022/06/26 01:00:54;;;;;;;9.75;6.40;;;18.20;99.90;;;;;;5043046;28;20051;-78
2022/06/26 01:03:20;;;;;;;8.45;7.18;;;18.10;99.90;;;;;;5043809;28;20032;-78
2022/06/26 01:05:47;;;;;;;5.88;5.30;;;18.10;99.90;;;;;;5072117;28;20526;-77
2022/06/26 01:08:13;;;;;;;7.97;6.70;;;18.10;99.90;;;;;;5030378;28;20492;-78
2022/06/26 01:10:40;;;;;;;8.93;7.13;;;18.10;99.90;;;;;;5051928;28;20029;-77
2022/06/26 01:13:07;;;;;;;9.00;7.20;;;18.10;99.90;;;;;;5045002;28;20047;-82
2022/06/26 01:15:34;;;;;;;8.70;7.72;;;18.10;99.90;;;;;;5044063;28;20045;-82
2022/06/26 01:18:01;;;;;;;6.10;5.60;;;18.10;99.90;;;;;;5031686;28;20032;-81
2022/06/26 01:20:27;;;;;;;7.05;6.35;;;18.10;99.90;;;;;;5042601;28;20053;-81
2022/06/26 01:23:05;;;;;;;7.30;6.60;;;18.10;99.90;;;;;;5044645;28;20029;-81
2022/06/26 01:25:40;;;;;;;7.65;6.88;;;18.10;99.90;;;;;;5057932;28;20055;-81
2022/06/26 01:28:07;;;;;;;8.30;7.10;;;18.10;99.90;;;;;;5046240;28;20029;-81
2022/06/26 01:30:34;;;;;;;8.80;7.90;;;18.10;99.90;;;;;;5041458;28;20450;-81
2022/06/26 01:33:00;;;;;;;7.53;6.82;;;18.10;99.90;;;;;;5060039;28;20028;-81
2022/06/26 01:35:27;;;;;;;5.70;5.00;;;18.10;99.90;;;;;;5043484;28;20037;-80
2022/06/26 01:38:16;;;;;;;6.75;6.18;;;18.10;99.90;;;;;;5057791;28;20048;-80
2022/06/26 01:40:44;;;;;;;7.70;6.13;;;18.10;99.90;;;;;;5056716;28;20033;-80
2022/06/26 01:43:14;;;;;;;7.25;6.60;;;18.10;99.90;;;;;;5076853;28;20044;-81
2022/06/26 01:45:46;;;;;;;8.05;7.32;;;18.00;99.90;;;;;;5062054;28;20033;-81
2022/06/26 01:48:13;;;;;;;;;;;18.00;99.90;;;;;;5062177;28;20387;-80
2022/06/26 01:50:41;;;;;;;7.78;6.53;;;18.00;99.90;;;;;;5031225;28;19919;-81
2022/06/26 01:53:09;;;;;;;7.70;6.97;;;18.00;99.90;;;;;;5015557;28;20032;-81
2022/06/26 01:55:42;;;;;;;7.63;6.93;;;17.90;99.90;;;;;;5031658;28;20029;-81
2022/06/26 01:58:13;;;;;;;11.60;6.38;;;17.90;99.90;;;;;;5047300;28;20533;-81
2022/06/26 02:00:43;;;;;;;6.30;5.80;;;17.90;99.90;;;;;;5045489;28;20036;-81
2022/06/26 02:03:16;;;;;;;7.30;6.05;;;17.90;99.90;;;;;;5076083;28;20040;-81
2022/06/26 02:05:44;;;;;;;5.50;5.00;;;17.90;99.90;;;;;;5063740;28;20024;-81
2022/06/26 02:08:11;;;;;;;6.05;5.55;;;17.90;99.90;;;;;;5049388;28;20029;-80
2022/06/26 02:13:36;;;;;;;5.72;4.97;;;17.80;99.90;;;;;;5058106;28;20041;-81
2022/06/26 02:16:23;;;;;;;5.47;4.95;;;17.80;99.90;;;;;;5046428;28;20032;-81
2022/06/26 02:18:53;;;;;;;6.50;5.60;;;17.80;99.90;;;;;;5062434;28;21651;-81
2022/06/26 02:21:22;;;;;;;7.28;6.57;;;17.70;99.90;;;;;;5061022;28;20032;-81
2022/06/26 02:23:53;;;;;;;6.63;6.03;;;17.60;99.90;;;;;;5075674;28;20037;-81
2022/06/26 02:26:22;;;;;;;8.13;7.40;;;17.60;99.90;;;;;;5070817;28;20017;-81
2022/06/26 02:28:54;;;;;;;7.53;6.88;;;17.50;99.90;;;;;;5060353;28;20025;-81
2022/06/26 02:31:28;;;;;;;8.32;7.55;;;17.60;99.90;;;;;;5068511;28;20041;-81
2022/06/26 02:34:00;;;;;;;6.85;6.28;;;17.60;99.90;;;;;;5065611;28;20040;-81
2022/06/26 02:36:36;;;;;;;6.75;6.15;;;17.60;99.90;;;;;;5046199;28;20395;-81
2022/06/26 02:39:06;;;;;;;9.40;8.50;;;17.60;99.90;;;;;;5062509;28;20448;-82
2022/06/26 02:41:32;;;;;;;8.18;7.45;;;17.50;99.90;;;;;;5068392;28;20048;-81
2022/06/26 02:44:02;;;;;;;8.77;7.88;;;17.40;99.90;;;;;;5033367;28;20049;-81
2022/06/26 02:46:31;;;;;;;8.45;7.65;;;17.40;99.90;;;;;;5048541;28;20035;-81
2022/06/26 02:48:57;;;;;;;9.68;8.80;;;17.30;99.90;;;;;;5055975;28;21305;-81
2022/06/26 02:51:26;;;;;;;10.65;9.07;;;17.20;99.90;;;;;;5049079;28;20389;-81
2022/06/26 02:53:55;;;;;;;8.95;8.07;;;17.30;99.90;;;;;;5021166;28;20037;-81
2022/06/26 02:56:21;;;;;;;4.88;4.47;;;17.20;99.90;;;;;;5065748;28;20016;-80
2022/06/26 02:58:48;;;;;;;9.88;9.00;;;17.20;99.90;;;;;;5013807;28;20044;-80
2022/06/26 03:01:16;;;;;;;10.25;9.15;;;17.20;99.90;;;;;;5055949;28;20028;-81
2022/06/26 03:03:42;;;;;;;9.55;8.60;;;17.20;99.90;;;;;;5038340;28;20040;-81
2022/06/26 03:06:10;;;;;;;9.57;8.68;;;17.20;99.90;;;;;;5041814;28;20029;-81
2022/06/26 03:08:37;;;;;;;8.85;8.05;;;17.30;99.90;;;;;;5057174;28;20043;-81
2022/06/26 03:11:04;;;;;;;9.60;8.75;;;17.30;99.90;;;;;;5013330;28;20040;-80
2022/06/26 03:13:30;;;;;;;9.70;8.85;;;17.30;99.90;;;;;;5050097;28;20029;-81
2022/06/26 03:15:58;;;;;;;9.10;8.20;;;17.40;99.90;;;;;;5028758;28;20029;-81
2022/06/26 03:18:25;;;;;;;10.18;9.13;;;17.40;99.90;;;;;;5026855;28;20499;-80
2022/06/26 03:20:54;;;;;;;9.35;8.48;;;17.40;99.90;;;;;;5056180;28;20039;-80
2022/06/26 03:24:00;;;;;;;9.05;8.25;;;17.40;99.90;;;;;;5032117;28;20047;-81
2022/06/26 03:26:07;;;;;;;9.07;8.27;;;17.40;99.90;;;;;;5015651;28;20048;-78
2022/06/26 03:28:34;;;;;;;12.30;11.00;;;17.40;99.90;;;;;;5039094;28;20456;-79
2022/06/26 03:31:00;;;;;;;11.20;10.10;;;17.40;99.90;;;;;;5053815;28;20032;-77
2022/06/26 03:33:26;;;;;;;12.10;11.00;;;17.40;99.90;;;;;;5024460;28;20396;-77
2022/06/26 03:35:53;;;;;;;11.48;10.30;;;17.40;99.90;;;;;;5040220;28;20036;-77
2022/06/26 03:38:19;;;;;;;10.82;9.82;;;17.40;99.90;;;;;;5055669;28;20067;-77
2022/06/26 03:40:46;;;;;;;12.18;10.98;;;17.50;99.90;;;;;;5043139;28;20029;-77
2022/06/26 03:43:12;;;;;;;13.18;10.93;;;17.50;99.90;;;;;;5053408;28;20381;-78
2022/06/26 03:45:49;;;;;;;13.38;12.10;;;17.50;99.90;;;;;;5044220;28;20048;-78
2022/06/26 03:48:15;;;;;;;12.25;11.00;;;17.50;99.90;;;;;;5044715;28;20051;-79
2022/06/26 03:50:42;;;;;;;12.88;11.50;;;17.50;99.90;;;;;;5058781;28;20044;-79
2022/06/26 03:53:08;;;;;;;12.07;10.35;;;17.50;99.90;;;;;;5029598;28;20036;-79
2022/06/26 03:55:37;;;;;;;14.65;12.50;;;17.50;99.90;;;;;;5045933;28;20463;-79
2022/06/26 03:58:04;;;;;;;12.40;11.23;;;17.50;99.90;;;;;;5048883;28;20032;-79
2022/06/26 04:00:34;;;;;;;15.90;13.48;;;17.50;99.90;;;;;;5052570;28;20402;-79
2022/06/26 04:03:05;;;;;;;17.80;14.55;;;17.50;99.90;;;;;;5047725;28;20027;-78
2022/06/26 04:05:33;;;;;;;14.55;13.10;;;17.50;99.90;;;;;;5067653;28;20044;-78
2022/06/26 04:07:59;;;;;;;13.45;12.05;;;17.50;99.90;;;;;;5064312;28;20487;-77
2022/06/26 04:10:39;;;;;;;13.60;11.77;;;17.40;99.90;;;;;;5059947;28;20052;-77
2022/06/26 04:13:19;;;;;;;12.95;11.60;;;17.40;99.90;;;;;;5052435;28;20032;-77
2022/06/26 04:15:48;;;;;;;14.05;12.65;;;17.40;99.90;;;;;;5060240;28;20055;-77
2022/06/26 04:18:15;;;;;;;13.43;12.07;;;17.50;99.90;;;;;;5075854;28;20051;-77
2022/06/26 04:20:43;;;;;;;13.00;10.90;;;17.50;99.90;;;;;;5056079;28;20047;-77
2022/06/26 04:23:11;;;;;;;14.82;12.23;;;17.50;99.90;;;;;;5060395;28;20028;-77
2022/06/26 04:25:41;;;;;;;15.55;13.93;;;17.50;99.90;;;;;;5046329;28;20020;-77
2022/06/26 04:28:09;;;;;;;23.33;18.00;;;17.50;99.90;;;;;;5060912;28;20060;-77
2022/06/26 04:30:38;;;;;;;20.77;17.20;;;17.50;99.90;;;;;;5046873;28;20522;-77
2022/06/26 04:33:05;;;;;;;18.30;14.98;;;17.40;99.90;;;;;;5047152;28;20029;-77
2022/06/26 04:35:33;;;;;;;17.48;14.10;;;17.30;99.90;;;;;;5045531;28;20059;-79
2022/06/26 04:38:02;;;;;;;18.17;15.02;;;17.20;99.90;;;;;;5077031;28;20044;-79
2022/06/26 04:40:29;;;;;;;19.70;15.90;;;17.10;99.90;;;;;;5063031;28;23726;-78
2022/06/26 04:42:56;;;;;;;17.92;13.93;;;17.10;99.90;;;;;;5077130;28;20051;-77
2022/06/26 04:45:23;;;;;;;14.05;11.85;;;17.10;99.90;;;;;;5061882;28;20033;-77
2022/06/26 04:47:52;;;;;;;15.45;12.90;;;17.10;99.90;;;;;;5027656;28;20040;-78
2022/06/26 04:50:18;;;;;;;16.48;13.55;;;17.00;99.90;;;;;;5072102;28;20399;-79
2022/06/26 04:52:47;;;;;;;16.70;12.18;;;17.00;99.90;;;;;;5044479;28;20036;-79
2022/06/26 04:55:14;;;;;;;14.52;11.70;;;17.00;99.90;;;;;;5045928;28;20044;-79
2022/06/26 04:57:45;;;;;;;18.00;14.27;;;17.00;99.90;;;;;;5074863;28;20021;-77
2022/06/26 05:00:14;;;;;;;16.80;13.55;;;17.10;99.90;;;;;;5058339;28;20392;-78
2022/06/26 05:02:52;;;;;;;14.45;12.45;;;17.20;99.90;;;;;;5028221;28;20024;-78
2022/06/26 05:05:24;;;;;;;12.70;11.05;;;17.20;99.90;;;;;;5046321;28;20016;-79
2022/06/26 05:08:15;;;;;;;15.18;12.35;;;17.20;99.90;;;;;;5047360;28;20032;-79
2022/06/26 05:10:42;;;;;;;17.27;14.25;;;17.20;99.90;;;;;;5060069;28;20041;-77
2022/06/26 05:13:11;;;;;;;16.42;14.20;;;17.20;99.90;;;;;;5059367;28;20032;-79
2022/06/26 05:16:10;;;;;;;19.10;14.85;;;17.20;99.90;;;;;;5046854;28;20033;-77
2022/06/26 05:18:37;;;;;;;17.77;15.23;;;17.20;99.90;;;;;;5053161;28;20033;-79
2022/06/26 05:21:03;;;;;;;16.88;15.07;;;17.20;99.90;;;;;;5061475;28;20040;-77
2022/06/26 05:23:35;;;;;;;16.00;13.23;;;17.20;99.90;;;;;;5055940;28;20052;-79
2022/06/26 05:26:10;;;;;;;15.75;12.07;;;17.20;99.90;;;;;;5075517;28;20044;-79
2022/06/26 05:28:37;;;;;;;18.08;13.05;;;17.20;99.90;;;;;;5058252;28;20020;-78
2022/06/26 05:31:04;;;;;;;17.90;12.95;;;17.20;99.90;;;;;;5032325;28;20047;-78
2022/06/26 05:33:35;;;;;;;14.02;11.95;;;17.10;99.90;;;;;;5056889;28;20047;-77
2022/06/26 05:36:02;;;;;;;16.38;11.88;;;17.10;99.90;;;;;;5044989;28;20384;-77
2022/06/26 05:38:29;;;;;;;17.48;13.23;;;17.10;99.90;;;;;;5056766;28;20036;-78
2022/06/26 05:40:56;;;;;;;19.13;13.13;;;17.00;99.90;;;;;;5043112;28;20040;-77
2022/06/26 05:43:23;;;;;;;15.63;12.25;;;17.00;99.90;;;;;;5043879;28;20063;-77
2022/06/26 05:45:52;;;;;;;18.30;13.15;;;17.00;99.90;;;;;;5045690;28;20036;-77
2022/06/26 05:48:38;;;;;;;15.35;11.13;;;17.00;99.90;;;;;;5031164;28;20058;-79
2022/06/26 05:51:25;;;;;;;14.43;11.50;;;17.00;99.90;;;;;;5044742;28;20099;-77
2022/06/26 05:54:05;;;;;;;20.48;14.93;;;17.20;99.90;;;;;;5060337;28;20028;-77
2022/06/26 05:56:41;;;;;;;19.17;14.80;;;17.30;99.90;;;;;;5061417;28;20037;-78
2022/06/26 05:59:37;;;;;;;17.27;15.13;;;17.60;99.90;;;;;;5053026;28;20044;-78
2022/06/26 06:02:16;;;;;;;16.95;13.80;;;17.70;99.90;;;;;;5048680;28;20059;-77
2022/06/26 06:04:42;;;;;;;17.88;14.70;;;17.80;99.90;;;;;;5070811;28;20036;-79
2022/06/26 06:07:09;;;;;;;16.58;14.27;;;17.90;99.90;;;;;;5060060;28;20029;-77
2022/06/26 06:09:36;;;;;;;15.20;13.57;;;18.10;99.90;;;;;;5052857;28;20041;-77
2022/06/26 06:12:02;;;;;;;17.65;14.35;;;18.30;99.90;;;;;;5060866;28;20028;-78
2022/06/26 06:14:30;;;;;;;16.73;14.00;;;18.50;99.90;;;;;;5012925;28;20044;-77
2022/06/26 06:16:57;;;;;;;16.33;13.35;;;18.60;99.90;;;;;;5056564;28;20024;-77
2022/06/26 06:19:23;;;;;;;14.50;11.57;;;18.60;99.90;;;;;;5037577;28;20039;-77
2022/06/26 06:21:51;;;;;;;12.48;11.18;;;18.70;99.90;;;;;;5037644;28;20032;-77
2022/06/26 06:24:23;;;;;;;14.30;12.15;;;18.90;99.90;;;;;;5055161;28;20064;-78
2022/06/26 06:26:51;;;;;;;14.65;13.07;;;19.20;99.90;;;;;;5055762;28;20031;-77
2022/06/26 06:29:21;;;;;;;14.95;13.35;;;19.40;99.90;;;;;;5021481;28;20048;-77
2022/06/26 06:31:47;;;;;;;14.10;12.60;;;19.40;99.90;;;;;;4995420;28;20031;-77
2022/06/26 06:34:16;;;;;;;13.45;12.02;;;19.30;99.90;;;;;;5038146;28;20013;-77
2022/06/26 06:36:42;;;;;;;14.13;11.13;;;19.50;99.90;;;;;;5042384;28;20482;-77
2022/06/26 06:39:14;;;;;;;14.80;12.52;;;19.50;99.90;;;;;;5045671;28;20035;-78
2022/06/26 06:41:44;;;;;;;12.80;11.48;;;19.50;99.90;;;;;;5075710;28;20467;-75
2022/06/26 06:44:12;;;;;;;13.07;10.35;;;19.60;99.90;;;;;;5056122;28;20053;-77
2022/06/26 06:47:14;;;;;;;9.85;8.52;;;19.70;99.90;;;;;;5038432;28;20040;-79
2022/06/26 06:50:00;;;;;;;14.10;10.45;;;20.00;99.90;;;;;;5051911;28;20040;-79
2022/06/26 06:52:28;;;;;;;9.23;8.25;;;20.10;99.90;;;;;;5056029;28;20044;-76
2022/06/26 06:54:55;;;;;;;8.93;8.02;;;20.30;99.90;;;;;;5037815;28;20040;-76
2022/06/26 06:57:25;;;;;;;9.52;8.50;;;20.40;99.90;;;;;;5040719;28;20661;-77
2022/06/26 06:59:52;;;;;;;9.98;7.53;;;20.60;99.90;;;;;;5032800;28;20039;-76
2022/06/26 07:02:18;;;;;;;8.27;7.00;;;20.60;99.90;;;;;;5019704;28;20025;-75
2022/06/26 07:04:46;;;;;;;7.05;6.35;;;20.60;99.90;;;;;;5051202;28;20029;-75
2022/06/26 07:07:12;;;;;;;6.72;6.03;;;20.70;99.90;;;;;;5060301;28;20028;-76
2022/06/26 07:09:39;;;;;;;8.13;6.78;;;20.70;99.90;;;;;;5063738;28;20044;-76
2022/06/26 07:12:07;;;;;;;7.07;5.93;;;20.80;99.90;;;;;;5033332;28;20048;-76
2022/06/26 07:14:34;;;;;;;5.45;4.95;;;20.90;99.90;;;;;;5017273;28;20775;-76
2022/06/26 07:17:04;;;;;;;5.90;4.80;;;21.10;99.90;;;;;;5016217;28;20496;-77
2022/06/26 07:19:30;;;;;;;5.40;4.75;;;21.10;99.90;;;;;;5047602;28;20016;-76
2022/06/26 07:22:00;;;;;;;6.97;5.70;;;21.10;99.90;;;;;;5025267;28;20040;-75
2022/06/26 07:24:27;;;;;;;7.18;5.40;;;21.00;99.90;;;;;;5042381;28;20523;-74
2022/06/26 07:27:25;;;;;;;6.85;5.53;;;21.10;99.90;;;;;;5032588;28;21521;-75
2022/06/26 07:29:52;;;;;;;4.75;4.22;;;21.30;99.90;;;;;;5013093;28;20045;-75
2022/06/26 07:32:18;;;;;;;6.28;4.10;;;21.40;99.90;;;;;;5056922;28;20024;-77
2022/06/26 07:34:45;;;;;;;5.78;3.67;;;21.60;99.90;;;;;;5058758;28;20466;-76
2022/06/26 07:37:12;;;;;;;5.18;3.65;;;21.80;99.90;;;;;;5057901;28;20053;-77
2022/06/26 07:39:39;;;;;;;5.55;4.30;;;21.90;99.90;;;;;;5040838;28;20040;-77
2022/06/26 07:42:06;;;;;;;5.20;3.65;;;22.10;99.90;;;;;;5037926;28;20021;-76
2022/06/26 07:44:34;;;;;;;4.55;2.33;;;22.10;99.90;;;;;;5059558;28;20028;-77
2022/06/26 07:47:04;;;;;;;4.50;2.40;;;22.20;99.90;;;;;;5079768;28;20039;-76
2022/06/26 07:49:50;;;;;;;5.63;2.75;;;22.40;99.90;;;;;;5041046;28;20049;-76
2022/06/26 07:52:17;;;;;;;5.00;2.10;;;22.70;99.90;;;;;;5062457;28;20041;-77
2022/06/26 07:54:53;;;;;;;4.88;2.25;;;22.80;99.90;;;;;;5046535;28;20040;-76
2022/06/26 07:57:23;;;;;;;5.88;2.38;;;22.80;99.90;;;;;;5063621;28;20028;-77
2022/06/26 07:59:52;;;;;;;4.22;2.22;;;22.80;99.90;;;;;;5019719;28;20029;-77
2022/06/26 08:02:28;;;;;;;3.90;1.70;;;22.90;99.90;;;;;;5083215;28;20043;-79
2022/06/26 08:04:54;;;;;;;3.08;2.08;;;23.10;99.90;;;;;;5068573;28;20043;-78
2022/06/26 08:07:26;;;;;;;3.80;2.38;;;23.30;99.90;;;;;;5064900;28;20494;-76
2022/06/26 08:09:53;;;;;;;;;;;23.40;99.90;;;;;;5057957;28;20064;-76
2022/06/26 08:12:19;;;;;;;6.82;1.95;;;23.40;99.90;;;;;;5055585;28;19963;-76
2022/06/26 08:14:45;;;;;;;3.42;1.02;;;23.50;99.90;;;;;;5058583;28;20055;-76
2022/06/26 08:17:12;;;;;;;3.38;1.52;;;23.60;99.90;;;;;;5040484;28;20040;-76
2022/06/26 08:19:41;;;;;;;2.92;1.20;;;23.80;99.90;;;;;;5070879;28;20024;-75
2022/06/26 08:22:10;;;;;;;2.25;1.00;;;23.90;99.90;;;;;;5053354;28;20060;-76
2022/06/26 08:24:42;;;;;;;2.33;0.95;;;24.10;99.90;;;;;;5054195;28;20040;-76
2022/06/26 08:27:21;;;;;;;2.88;1.00;;;24.20;99.90;;;;;;5030531;28;20041;-76
2022/06/26 08:29:54;;;;;;;1.60;0.70;;;24.20;99.90;;;;;;5077052;28;20480;-76
2022/06/26 08:32:24;;;;;;;1.88;1.20;;;24.20;99.90;;;;;;5051265;28;20053;-76
2022/06/26 08:35:13;;;;;;;2.78;1.00;;;24.10;99.90;;;;;;5056815;28;20028;-76
2022/06/26 08:37:42;;;;;;;3.40;1.10;;;23.90;99.90;;;;;;5056746;28;20067;-76
2022/06/26 08:40:14;;;;;;;3.10;1.13;;;23.70;99.90;;;;;;5055405;28;20025;-76
2022/06/26 08:42:52;;;;;;;2.97;1.52;;;23.60;99.90;;;;;;5028445;28;20033;-76
2022/06/26 08:45:37;;;;;;;3.33;1.35;;;23.40;99.90;;;;;;5052817;28;20033;-76
2022/06/26 08:48:06;;;;;;;3.15;0.90;;;23.30;99.90;;;;;;5057954;28;20021;-76
2022/06/26 08:50:34;;;;;;;2.03;1.17;;;23.30;99.90;;;;;;5053006;28;20045;-76
2022/06/26 08:53:11;;;;;;;3.08;0.93;;;23.30;99.90;;;;;;5036471;28;20032;-76
2022/06/26 08:55:40;;;;;;;4.30;1.15;;;23.40;99.90;;;;;;5060527;28;20024;-77
2022/06/26 08:58:06;;;;;;;5.95;1.60;;;23.40;99.90;;;;;;5055921;28;20020;-76
2022/06/26 09:00:33;;;;;;;3.22;1.23;;;23.50;99.90;;;;;;5039730;28;20016;-78
2022/06/26 09:02:59;;;;;;;4.85;1.25;;;23.50;99.90;;;;;;5027273;28;20041;-76
2022/06/26 09:05:26;;;;;;;2.38;1.00;;;23.50;99.90;;;;;;5041337;28;20043;-76
2022/06/26 09:07:53;;;;;;;2.30;1.13;;;23.60;99.90;;;;;;5052527;28;21183;-76
2022/06/26 09:10:21;;;;;;;2.22;1.25;;;23.70;99.90;;;;;;5071298;28;20025;-79
2022/06/26 09:12:55;;;;;;;3.38;1.20;;;23.80;99.90;;;;;;5058526;28;20039;-79
2022/06/26 09:15:24;;;;;;;3.83;1.60;;;23.90;99.90;;;;;;5071794;28;20032;-76
2022/06/26 09:18:11;;;;;;;2.88;1.35;;;23.90;99.90;;;;;;5056837;28;20036;-76
2022/06/26 09:20:58;;;;;;;2.20;1.10;;;23.90;99.90;;;;;;5068121;28;20519;-75
2022/06/26 09:23:24;;;;;;;2.63;0.90;;;24.00;99.90;;;;;;5039295;28;20033;-76
2022/06/26 09:25:50;;;;;;;3.17;0.90;;;24.00;99.90;;;;;;5071529;28;20032;-75
2022/06/26 09:28:19;;;;;;;3.30;1.10;;;24.20;99.90;;;;;;5058983;28;20035;-79
2022/06/26 09:31:03;;;;;;;4.47;1.27;;;24.20;99.90;;;;;;5042554;28;20013;-75
2022/06/26 09:33:36;;;;;;;2.13;0.98;;;24.30;99.90;;;;;;5054203;28;20029;-78
2022/06/26 09:36:04;;;;;;;2.17;1.00;;;24.30;99.90;;;;;;5059895;28;20047;-78
2022/06/26 09:38:35;;;;;;;2.65;1.20;;;24.20;99.90;;;;;;5042260;28;20055;-78
2022/06/26 09:41:04;;;;;;;2.67;1.02;;;24.10;99.90;;;;;;5057929;28;20467;-77
2022/06/26 09:43:38;;;;;;;2.75;1.23;;;24.20;99.90;;;;;;5071159;28;20043;-78
2022/06/26 09:46:13;;;;;;;3.38;1.30;;;24.10;99.90;;;;;;5077418;28;20043;-77
2022/06/26 09:48:41;;;;;;;3.47;1.35;;;24.00;99.90;;;;;;5071466;28;20032;-77
2022/06/26 09:51:10;;;;;;;4.10;1.05;;;24.00;99.90;;;;;;5056934;28;20032;-77
2022/06/26 09:53:37;;;;;;;3.20;1.52;;;24.00;99.90;;;;;;5044682;28;21306;-77
2022/06/26 09:56:12;;;;;;;3.53;1.38;;;24.00;99.90;;;;;;5044655;28;20037;-77
2022/06/26 09:58:44;;;;;;;4.47;1.25;;;24.00;99.90;;;;;;5055837;28;20151;-78
2022/06/26 10:07:11;;;;;;;4.25;1.38;;;23.90;99.90;;;;;;5057741;28;20035;-76
2022/06/26 10:09:40;;;;;;;2.58;1.10;;;23.90;99.90;;;;;;5053665;28;20024;-76
2022/06/26 10:12:12;;;;;;;;;;;23.90;99.90;;;;;;5042917;28;20483;-77
2022/06/26 10:14:43;;;;;;;1.70;1.00;;;24.00;99.90;;;;;;5060790;28;19916;-79
2022/06/26 10:17:35;;;;;;;2.75;1.30;;;24.10;99.90;;;;;;5059363;28;20353;-79
2022/06/26 10:20:18;;;;;;;2.80;1.08;;;24.20;99.90;;;;;;5074379;28;20048;-80
2022/06/26 10:22:45;;;;;;;2.90;1.00;;;24.30;99.90;;;;;;5057090;28;20992;-79
2022/06/26 10:25:26;;;;;;;2.20;0.82;;;24.30;99.90;;;;;;5058495;28;20025;-80
2022/06/26 10:27:58;;;;;;;3.05;1.00;;;24.40;99.90;;;;;;5059820;28;20040;-79
2022/06/26 10:30:31;;;;;;;2.33;1.00;;;24.40;99.90;;;;;;5056031;28;20043;-79
2022/06/26 10:33:17;;;;;;;2.47;1.13;;;24.30;99.90;;;;;;5061180;28;20033;-79
2022/06/26 10:35:49;;;;;;;4.97;1.38;;;24.30;99.90;;;;;;5044613;28;20028;-79
2022/06/26 10:38:27;;;;;;;3.47;1.42;;;24.20;99.90;;;;;;5055036;28;20444;-79
2022/06/26 10:44:09;;;;;;;3.55;1.30;;;24.10;99.90;;;;;;5046892;28;20064;-80
2022/06/26 10:46:47;;;;;;;4.28;1.55;;;24.10;99.90;;;;;;5077908;28;20044;-79
2022/06/26 10:49:17;;;;;;;2.47;1.02;;;24.00;99.90;;;;;;5043591;28;20031;-79
2022/06/26 10:51:46;;;;;;;4.97;1.90;;;23.90;99.90;;;;;;5062700;28;20049;-80
2022/06/26 10:54:33;;;;;;;4.40;1.73;;;24.00;99.90;;;;;;5042164;28;20059;-80
2022/06/26 10:57:12;;;;;;;3.88;1.45;;;23.90;99.90;;;;;;5075496;28;20032;-80
2022/06/26 10:59:42;;;;;;;3.00;1.40;;;23.90;99.90;;;;;;5056773;28;20053;-80
2022/06/26 11:02:13;;;;;;;4.10;1.40;;;24.00;99.90;;;;;;5047544;28;20369;-80
2022/06/26 11:04:47;;;;;;;4.28;1.58;;;24.10;99.90;;;;;;5030736;28;20041;-80
2022/06/26 11:07:14;;;;;;;4.20;1.67;;;24.40;99.90;;;;;;5050625;28;20043;-81
2022/06/26 11:09:41;;;;;;;2.55;1.60;;;24.60;99.90;;;;;;5059945;28;20040;-80
2022/06/26 11:12:08;;;;;;;5.35;1.92;;;24.70;99.90;;;;;;5048003;28;20140;-80
2022/06/26 11:14:34;;;;;;;4.93;1.65;;;24.90;99.90;;;;;;5020970;28;20388;-80
2022/06/26 11:17:01;;;;;;;4.88;2.35;;;25.00;99.90;;;;;;5049752;28;20036;-80
2022/06/26 11:19:32;;;;;;;4.57;1.77;;;25.00;99.90;;;;;;5039575;28;20044;-80
2022/06/26 11:22:09;;;;;;;4.10;1.80;;;24.90;99.90;;;;;;5072411;28;20033;-80
2022/06/26 11:24:51;;;;;;;4.82;1.83;;;24.80;99.90;;;;;;5045373;28;20040;-80
2022/06/26 11:27:26;;;;;;;4.15;1.75;;;24.70;99.90;;;;;;5047966;28;20027;-80
2022/06/26 11:29:52;;;;;;;3.40;1.10;;;24.60;99.90;;;;;;5056212;28;20056;-80
2022/06/26 11:32:24;;;;;;;2.22;1.30;;;24.50;99.90;;;;;;5025886;28;20359;-80
2022/06/26 11:34:52;;;;;;;3.20;1.20;;;24.50;99.90;;;;;;5047567;28;20040;-80
2022/06/26 11:37:32;;;;;;;4.68;1.95;;;24.40;99.90;;;;;;5058249;28;20466;-81
2022/06/26 11:39:58;;;;;;;3.58;2.30;;;24.40;99.90;;;;;;5057909;28;20027;-81
2022/06/26 11:42:25;;;;;;;8.88;5.13;;;24.30;99.90;;;;;;5042423;28;20033;-79
2022/06/26 11:44:53;;;;;;;5.68;2.70;;;24.30;99.90;;;;;;5043378;28;20353;-80
2022/06/26 11:47:21;;;;;;;5.13;2.17;;;24.30;99.90;;;;;;5045312;28;20035;-80
2022/06/26 11:49:48;;;;;;;5.07;1.75;;;24.30;99.90;;;;;;5055224;28;20021;-80
2022/06/26 11:52:16;;;;;;;4.65;1.58;;;24.20;99.90;;;;;;5043254;28;20037;-81
2022/06/26 11:54:43;;;;;;;7.90;2.53;;;24.10;99.90;;;;;;5017426;28;20048;-80
2022/06/26 11:57:10;;;;;;;4.25;1.58;;;24.00;99.90;;;;;;5029866;28;20028;-80
2022/06/26 11:59:46;;;;;;;5.78;2.25;;;23.80;99.90;;;;;;5057776;28;20445;-78
2022/06/26 12:02:28;;;;;;;2.90;1.70;;;23.70;99.90;;;;;;5045279;28;20024;-80
2022/06/26 12:05:13;;;;;;;;;;;23.60;99.90;;;;;;5034050;28;20411;-78
2022/06/26 12:07:47;;;;;;;4.75;1.67;;;23.60;99.90;;;;;;5059334;28;20287;-79
2022/06/26 12:10:24;;;;;;;3.50;1.33;;;23.40;99.90;;;;;;5042083;28;20040;-79
2022/06/26 12:12:52;;;;;;;3.13;1.60;;;23.30;99.90;;;;;;5058497;28;20035;-79
2022/06/26 12:15:18;;;;;;;2.78;1.15;;;23.10;99.90;;;;;;5058829;28;20043;-80
2022/06/26 12:17:57;;;;;;;3.78;1.27;;;23.00;99.90;;;;;;5059095;28;20029;-79
2022/06/26 12:20:24;;;;;;;4.30;2.10;;;23.00;99.90;;;;;;5058877;28;20373;-78
2022/06/26 12:22:53;;;;;;;6.93;4.53;;;23.00;99.90;;;;;;5063979;28;20029;-80
2022/06/26 12:25:42;;;;;;;8.75;5.28;;;22.90;99.90;;;;;;5064963;28;20037;-80
2022/06/26 12:28:21;;;;;;;5.57;4.55;;;22.90;99.90;;;;;;5063622;28;20024;-80
2022/06/26 12:30:48;;;;;;;4.88;2.40;;;22.90;99.90;;;;;;5060462;28;20043;-80
2022/06/26 12:33:15;;;;;;;6.68;4.60;;;22.90;99.90;;;;;;5065071;28;20041;-80
2022/06/26 12:35:42;;;;;;;6.60;3.05;;;22.90;99.90;;;;;;5064028;28;20025;-80
2022/06/26 12:38:08;;;;;;;4.63;2.15;;;22.80;99.90;;;;;;5046629;28;20514;-80
2022/06/26 12:40:39;;;;;;;4.10;1.42;;;22.70;99.90;;;;;;5059098;28;20040;-80
2022/06/26 12:43:08;;;;;;;2.38;0.90;;;22.50;99.90;;;;;;5062188;28;20024;-80
2022/06/26 12:45:34;;;;;;;2.83;0.70;;;22.40;99.90;;;;;;5063318;28;20033;-80
2022/06/26 12:48:01;;;;;;;2.08;1.00;;;22.30;99.90;;;;;;5045415;28;20048;-80
2022/06/26 12:50:28;;;;;;;3.83;0.88;;;22.10;99.90;;;;;;5073920;28;20041;-79
2022/06/26 12:52:54;;;;;;;1.98;0.77;;;22.00;99.90;;;;;;5064489;28;20062;-79
2022/06/26 12:55:20;;;;;;;4.03;0.93;;;21.90;99.90;;;;;;5064739;28;20025;-79
2022/06/26 12:57:47;;;;;;;2.33;1.08;;;21.90;99.90;;;;;;5027596;28;20031;-79
2022/06/26 13:00:14;;;;;;;2.35;1.15;;;21.80;99.90;;;;;;5058176;28;20040;-79
2022/06/26 13:02:40;;;;;;;3.17;1.00;;;21.70;99.90;;;;;;5044536;28;20483;-79
2022/06/26 13:05:07;;;;;;;3.53;1.00;;;21.70;99.90;;;;;;5062957;28;20049;-78
2022/06/26 13:07:34;;;;;;;4.07;1.35;;;21.80;99.90;;;;;;5062158;28;20587;-79
2022/06/26 13:10:00;;;;;;;4.75;1.48;;;21.90;99.90;;;;;;5045542;28;20145;-80
2022/06/26 13:12:27;;;;;;;2.85;1.45;;;22.00;99.90;;;;;;5076632;28;20360;-80